ブダペスト/フェリヘギ空港の過去48時間の天気

ブダペスト/フェリヘギ空港 (Budapest / Ferihegy)

現在時刻: 7/26 17:40 CEST (7/26 15:40 UTC) 以下の時間は現地時間です。

過去48時間のMETAR気象情報
時間 風向 風速(m/s) 視程 気温(℃) 湿度(%) 気圧(hPa) 天気現象
26 17:30 南南西 5 10km以上 32 38 1012
26 17:00 不定 2 10km以上 33 41 1012
26 16:30 南南東 3 10km以上 33 41 1012
26 16:00 南南東 5 10km以上 32 43 1013
26 15:30 3 10km以上 33 38 1013
26 15:00 4 10km以上 32 41 1013
26 14:30 南西 4 10km以上 32 38 1013
26 14:00 3 10km以上 32 41 1014
26 13:30 3 10km以上 31 49 1014
26 13:00 2 10km以上 31 46 1014
26 12:30 不定 2 10km以上 30 55 1014
26 12:00 2 10km以上 29 55 1014
26 11:30 南南東 3 10km以上 29 55 1014
26 11:00 南南東 2 10km以上 28 58 1014
26 10:30 南東 2 10km以上 27 62 1014
26 10:00 不定 1 10km以上 26 61 1014
26 09:30 不定 1 10km以上 26 61 1014
26 09:00 不定 1 10km以上 25 61 1013
26 08:30 不定 1 10km以上 24 65 1013
26 08:00 南南東 2 10km以上 23 69 1013
26 07:30 南東 2 10km以上 22 73 1013
26 07:00 南東 2 10km以上 22 73 1013
26 06:30 東南東 3 10km以上 20 83 1012
26 06:00 南東 3 10km以上 20 83 1012
26 05:30 南東 3 10km以上 20 78 1012
26 05:00 2 10km以上 19 88 1012
26 04:30 東南東 2 10km以上 20 83 1012
26 04:00 南東 2 10km以上 20 83 1012
26 03:30 不定 1 10km以上 21 78 1012
26 03:00 2 10km以上 22 73 1012
26 02:30 南東 3 10km以上 22 73 1012
26 02:00 南東 2 10km以上 23 69 1012
26 01:30 東南東 3 10km以上 23 69 1011
26 01:00 南東 2 10km以上 24 69 1011
26 00:30 南南東 3 10km以上 25 65 1011
26 00:00 南南東 4 10km以上 25 65 1011
25 23:30 南南東 4 10km以上 25 69 1011
25 23:00 南東 3 10km以上 24 74 1011
25 22:30 南東 4 10km以上 24 69 1012
25 22:00 南東 4 10km以上 25 69 1011
25 21:30 南東 4 10km以上 24 69 1011
25 21:00 南東 3 10km以上 25 65 1011
25 20:30 南東 3 10km以上 26 61 1011
25 20:00 南南東 4 10km以上 29 48 1011
25 19:30 南南東 4 10km以上 30 46 1011
25 19:00 南南東 5 10km以上 31 43 1011
25 18:30 5 10km以上 31 40 1011
25 18:00 5 10km以上 32 38 1012
25 17:30 6 10km以上 32 36 1012
25 17:00 5 10km以上 32 38 1012
25 16:30 南南東 6 10km以上 32 38 1012
25 16:00 南南東 6 10km以上 31 38 1012
25 15:30 6 10km以上 32 38 1012
25 15:00 5 10km以上 32 36 1012
25 14:30 5 10km以上 31 38 1012
25 14:00 南南東 5 10km以上 30 43 1012
25 13:30 南南東 5 10km以上 30 43 1013
25 13:00 南東 5 10km以上 29 52 1013
25 12:30 南東 5 10km以上 28 51 1013
25 12:00 南東 6 10km以上 28 51 1013
25 11:30 南東 6 10km以上 27 54 1013
25 11:00 南東 6 10km以上 26 54 1013
25 10:30 南東 6 10km以上 25 61 1014
25 10:00 南東 5 10km以上 24 61 1014
25 09:30 東南東 6 10km以上 22 69 1013
25 09:00 3 10km以上 20 83 1014
25 08:30 3 10km以上 20 83 1014
25 08:00 4 10km以上 19 83 1014
25 07:30 不定 1 10km以上 18 88 1014 弱いしゅう雨
25 07:00 4 8000m 18 83 1014 弱いしゅう雨
25 06:47 5 8000m 18 88 1014 弱いしゅう雨
25 06:30 北北西 2 10km以上 20 73 1015 弱い雷雨
25 06:07 北西 3 10km以上 20 73 1014 弱い雷雨
25 06:00 不定 1 10km以上 20 68 1014
25 05:30 3 10km以上 20 64 1013
25 05:00 4 10km以上 20 64 1013
25 04:30 4 10km以上 20 64 1013
25 04:00 1 10km以上 19 68 1013
25 03:30 2 10km以上 19 73 1013
25 03:00 3 10km以上 20 64 1013
25 02:30 2 10km以上 19 68 1013
25 02:00 1 10km以上 18 77 1014
25 01:30 北東 1 10km以上 19 73 1014
25 01:00 不定 1 10km以上 19 73 1014
25 00:30 不定 1 10km以上 19 73 1014
25 00:00 2 10km以上 19 73 1014
24 23:30 2 10km以上 20 68 1014
24 23:00 2 10km以上 20 68 1014
24 22:30 3 10km以上 21 64 1014
24 22:00 3 10km以上 22 60 1014
24 21:30 東南東 3 10km以上 22 60 1013
24 21:00 東南東 3 10km以上 22 65 1013
24 20:30 2 10km以上 24 54 1013
24 20:00 2 10km以上 26 51 1013
24 19:30 南東 3 10km以上 28 40 1013
24 19:00 南南東 2 10km以上 29 31 1013
24 18:30 4 10km以上 30 29 1013
24 18:00 南南西 2 10km以上 30 29 1014
LHBP 261530Z 21010KT 170V240 CAVOK 32/16 Q1012 NOSIG
LHBP 261500Z VRB04G14KT CAVOK 33/18 Q1012 NOSIG
LHBP 261430Z 15006KT 130V200 CAVOK 33/18 Q1012 NOSIG
LHBP 261400Z 15009KT CAVOK 32/18 Q1013 NOSIG
LHBP 261330Z 17006KT 130V200 CAVOK 33/17 Q1013 NOSIG
LHBP 261300Z 17008KT 150V220 CAVOK 32/17 Q1013 NOSIG
LHBP 261230Z 22008KT 200V270 CAVOK 32/16 Q1013 NOSIG
LHBP 261200Z 17005KT 100V230 CAVOK 32/17 Q1014 NOSIG
LHBP 261130Z 17006KT 100V220 CAVOK 31/19 Q1014 NOSIG
LHBP 261100Z 17004KT 100V230 CAVOK 31/18 Q1014 NOSIG
LHBP 261030Z VRB04KT CAVOK 30/20 Q1014 NOSIG
LHBP 261000Z 18004KT 130V290 CAVOK 29/19 Q1014 NOSIG
LHBP 260930Z 15005KT 090V180 CAVOK 29/19 Q1014 NOSIG
LHBP 260900Z 15004KT 110V170 CAVOK 28/19 Q1014 NOSIG
LHBP 260830Z 13004KT 080V170 CAVOK 27/19 Q1014 NOSIG
LHBP 260800Z VRB02KT CAVOK 26/18 Q1014 NOSIG
LHBP 260730Z VRB02KT CAVOK 26/18 Q1014 NOSIG
LHBP 260700Z VRB02KT CAVOK 25/17 Q1013 NOSIG
LHBP 260630Z VRB02KT CAVOK 24/17 Q1013 NOSIG
LHBP 260600Z 15004KT CAVOK 23/17 Q1013 NOSIG
LHBP 260530Z 14004KT CAVOK 22/17 Q1013 NOSIG
LHBP 260500Z 14004KT CAVOK 22/17 Q1013 NOSIG
LHBP 260430Z 12005KT CAVOK 20/17 Q1012 NOSIG
LHBP 260400Z 13005KT CAVOK 20/17 Q1012 NOSIG
LHBP 260330Z 13005KT CAVOK 20/16 Q1012 NOSIG
LHBP 260300Z 10003KT CAVOK 19/17 Q1012 NOSIG
LHBP 260230Z 11003KT 030V170 CAVOK 20/17 Q1012 NOSIG
LHBP 260200Z 14003KT 120V180 CAVOK 20/17 Q1012 NOSIG
LHBP 260130Z VRB01KT CAVOK 21/17 Q1012 NOSIG
LHBP 260100Z 10003KT 070V130 CAVOK 22/17 Q1012 NOSIG
LHBP 260030Z 14005KT CAVOK 22/17 Q1012 NOSIG
LHBP 260000Z 13003KT CAVOK 23/17 Q1012 NOSIG
LHBP 252330Z 12005KT CAVOK 23/17 Q1011 NOSIG
LHBP 252300Z 14004KT CAVOK 24/18 Q1011 NOSIG
LHBP 252230Z 15005KT CAVOK 25/18 Q1011 NOSIG
LHBP 252200Z 15007KT CAVOK 25/18 Q1011 NOSIG
LHBP 252130Z 15007KT CAVOK 25/19 Q1011 NOSIG
LHBP 252100Z 14006KT CAVOK 24/19 Q1011 NOSIG
LHBP 252030Z 14007KT CAVOK 24/18 Q1012 NOSIG
LHBP 252000Z 14007KT CAVOK 25/19 Q1011 NOSIG
LHBP 251930Z 13007KT CAVOK 24/18 Q1011 NOSIG
LHBP 251900Z 13005KT CAVOK 25/18 Q1011 NOSIG
LHBP 251830Z 13006KT CAVOK 26/18 Q1011 NOSIG
LHBP 251800Z 15007KT CAVOK 29/17 Q1011 NOSIG
LHBP 251730Z 16007KT CAVOK 30/17 Q1011 NOSIG
LHBP 251700Z 15009KT CAVOK 31/17 Q1011 NOSIG
LHBP 251630Z 17010KT CAVOK 31/16 Q1011 NOSIG
LHBP 251600Z 17009KT CAVOK 32/16 Q1012 NOSIG
LHBP 251530Z 17012KT CAVOK 32/15 Q1012 NOSIG
LHBP 251500Z 18010KT CAVOK 32/16 Q1012 NOSIG
LHBP 251430Z 16011KT CAVOK 32/16 Q1012 NOSIG
LHBP 251400Z 16012KT 120V180 CAVOK 31/15 Q1012 NOSIG
LHBP 251330Z 17012KT CAVOK 32/16 Q1012 NOSIG
LHBP 251300Z 18009KT 150V220 CAVOK 32/15 Q1012 NOSIG
LHBP 251230Z 18010KT 140V200 CAVOK 31/15 Q1012 NOSIG
LHBP 251200Z 15010KT CAVOK 30/16 Q1012 NOSIG
LHBP 251130Z 15010KT 130V200 CAVOK 30/16 Q1013 NOSIG
LHBP 251100Z 13010KT CAVOK 29/18 Q1013 NOSIG
LHBP 251030Z 14010KT 110V170 CAVOK 28/17 Q1013 NOSIG
LHBP 251000Z 14011KT 110V170 CAVOK 28/17 Q1013 NOSIG
LHBP 250930Z 14012KT CAVOK 27/17 Q1013 NOSIG
LHBP 250900Z 14011KT CAVOK 26/16 Q1013 NOSIG
LHBP 250830Z 13011KT CAVOK 25/17 Q1014 NOSIG
LHBP 250800Z 13010KT CAVOK 24/16 Q1014 NOSIG
LHBP 250730Z 12011KT CAVOK 22/16 Q1013 NOSIG
LHBP 250700Z 10005KT CAVOK 20/17 Q1014 NOSIG
LHBP 250630Z 10006KT CAVOK 20/17 Q1014 NOSIG
LHBP 250600Z 09007KT 9999 FEW040 19/16 Q1014 NOSIG
LHBP 250530Z VRB02KT 9999 -SHRA FEW037CB SCT060 18/16 Q1014 BECMG NSW
LHBP 250500Z 10007KT 080V140 8000 -SHRA FEW050CB 18/15 Q1014 RETSRA BECMG NSW
LHBP 250447Z 09009KT 8000 -SHRA FEW050CB 18/16 Q1014 BECMG NSW
LHBP 250430Z 33003KT 280V350 9999 -TSRA FEW050CB BKN090 20/15 Q1015 TEMPO TSRA SCT035CB BKN090
LHBP 250407Z 31006KT 9999 -TSRA FEW050CB 20/15 Q1014 TEMPO TSRA SCT035CB BKN090
LHBP 250400Z VRB02KT CAVOK 20/14 Q1014 TEMPO -TSRA SCT035CB BKN090
LHBP 250330Z 08005KT CAVOK 20/13 Q1013 NOSIG
LHBP 250300Z 08007KT CAVOK 20/13 Q1013 NOSIG
LHBP 250230Z 08007KT CAVOK 20/13 Q1013 NOSIG
LHBP 250200Z 09002KT CAVOK 19/13 Q1013 NOSIG
LHBP 250130Z 09004KT CAVOK 19/14 Q1013 NOSIG
LHBP 250100Z 08006KT CAVOK 20/13 Q1013 NOSIG
LHBP 250030Z 08003KT CAVOK 19/13 Q1013 NOSIG
LHBP 250000Z 09002KT CAVOK 18/14 Q1014 NOSIG
LHBP 242330Z 05001KT CAVOK 19/14 Q1014 NOSIG
LHBP 242300Z VRB01KT CAVOK 19/14 Q1014 NOSIG
LHBP 242230Z VRB02KT CAVOK 19/14 Q1014 NOSIG
LHBP 242200Z 09003KT CAVOK 19/14 Q1014 NOSIG
LHBP 242130Z 09004KT CAVOK 20/14 Q1014 NOSIG
LHBP 242100Z 09003KT CAVOK 20/14 Q1014 NOSIG
LHBP 242030Z 10005KT CAVOK 21/14 Q1014 NOSIG
LHBP 242000Z 10005KT CAVOK 22/14 Q1014 NOSIG
LHBP 241930Z 12005KT CAVOK 22/14 Q1013 NOSIG
LHBP 241900Z 12006KT CAVOK 22/15 Q1013 NOSIG
LHBP 241830Z 10003KT CAVOK 24/14 Q1013 NOSIG
LHBP 241800Z 10003KT CAVOK 26/15 Q1013 NOSIG
LHBP 241730Z 14005KT CAVOK 28/13 Q1013 NOSIG
LHBP 241700Z 16004KT 140V200 CAVOK 29/10 Q1013 NOSIG
LHBP 241630Z 19007KT CAVOK 30/10 Q1013 NOSIG
LHBP 241600Z 20004KT 150V270 CAVOK 30/10 Q1014 NOSIG